Time;durP1;ratioP1;P1;durP2;ratioP2;P2;SDS_P1;SDS_P2;PMS_P1;PMS_P2;Temp;Humidity;BMP_temperature;BMP_pressure;BME280_temperature;BME280_humidity;BME280_pressure;Samples;Min_cycle;Max_cycle;Signal;HPM_P1;HPM_P2
2021/06/10 00:00:00;;;;;;;21.35;13.18;;;19.50;99.90;;;;;;5031011;28;20071;-64
2021/06/10 00:02:27;;;;;;;17.23;12.68;;;19.50;99.90;;;;;;5032707;28;20041;-64
2021/06/10 00:04:53;;;;;;;16.67;13.05;;;19.50;99.90;;;;;;5032460;28;20035;-62
2021/06/10 00:07:20;;;;;;;16.02;12.93;;;19.40;99.90;;;;;;5032572;28;20029;-63
2021/06/10 00:09:47;;;;;;;18.00;12.68;;;19.20;99.90;;;;;;5030952;28;20472;-64
2021/06/10 00:12:16;;;;;;;17.90;12.82;;;19.00;99.90;;;;;;5032135;28;20089;-64
2021/06/10 00:14:44;;;;;;;18.40;13.82;;;19.00;99.90;;;;;;5032388;28;20029;-64
2021/06/10 00:17:10;;;;;;;18.23;12.77;;;19.10;99.90;;;;;;5032168;28;20061;-64
2021/06/10 00:19:36;;;;;;;19.10;13.02;;;19.10;99.90;;;;;;5030771;28;20441;-64
2021/06/10 00:22:03;;;;;;;20.42;13.55;;;18.90;99.90;;;;;;5032266;28;20071;-64
2021/06/10 00:24:29;;;;;;;19.52;13.18;;;18.90;99.90;;;;;;5032158;28;20123;-64
2021/06/10 00:26:54;;;;;;;19.10;13.30;;;19.00;99.90;;;;;;5032248;28;20031;-65
2021/06/10 00:29:20;;;;;;;20.17;14.55;;;18.90;99.90;;;;;;5030886;28;20553;-64
2021/06/10 00:31:47;;;;;;;21.30;14.80;;;18.90;99.90;;;;;;5030621;28;20379;-64
2021/06/10 00:34:14;;;;;;;22.25;15.50;;;18.80;99.90;;;;;;5030925;28;20394;-64
2021/06/10 00:36:40;;;;;;;23.63;15.27;;;18.70;99.90;;;;;;5030753;28;20482;-64
2021/06/10 00:39:06;;;;;;;23.48;15.43;;;18.70;99.90;;;;;;5032130;28;20111;-64
2021/06/10 00:41:34;;;;;;;20.23;15.38;;;18.70;99.90;;;;;;5032150;28;20030;-64
2021/06/10 00:44:04;;;;;;;23.27;16.30;;;18.80;99.90;;;;;;5030569;28;20048;-64
2021/06/10 00:46:30;;;;;;;22.40;15.30;;;18.60;99.90;;;;;;5032170;28;20060;-64
2021/06/10 00:48:56;;;;;;;24.30;15.27;;;18.50;99.90;;;;;;5031703;28;20068;-64
2021/06/10 00:51:22;;;;;;;20.77;15.43;;;18.50;99.90;;;;;;5033577;28;20094;-64
2021/06/10 00:53:48;;;;;;;21.75;15.95;;;18.50;99.90;;;;;;5034710;28;20038;-64
2021/06/10 00:56:14;;;;;;;19.58;14.38;;;18.40;99.90;;;;;;5036032;28;20497;-64
2021/06/10 00:58:40;;;;;;;29.02;15.68;;;18.50;99.90;;;;;;5035719;28;20041;-64
2021/06/10 01:01:08;;;;;;;20.48;14.57;;;18.60;99.90;;;;;;5035733;28;20044;-64
2021/06/10 01:03:36;;;;;;;23.10;15.52;;;18.50;99.90;;;;;;5035659;28;20029;-64
2021/06/10 01:06:13;;;;;;;19.13;14.00;;;18.40;99.90;;;;;;5034454;28;20116;-64
2021/06/10 01:08:50;;;;;;;20.42;15.27;;;18.50;99.90;;;;;;5035518;28;20044;-64
2021/06/10 01:11:31;;;;;;;23.83;15.50;;;18.40;99.90;;;;;;5034449;28;20116;-64
2021/06/10 01:14:19;;;;;;;28.48;15.38;;;18.40;99.90;;;;;;5034052;28;20038;-64
2021/06/10 01:16:47;;;;;;;21.88;15.50;;;18.30;99.90;;;;;;5035612;28;20452;-64
2021/06/10 01:19:42;;;;;;;22.80;15.00;;;18.20;99.90;;;;;;5035407;28;20030;-64
2021/06/10 01:22:30;;;;;;;24.00;15.30;;;18.20;99.90;;;;;;5035435;28;20167;-65
2021/06/10 01:25:39;;;;;;;22.90;15.02;;;18.10;99.90;;;;;;5017483;28;20033;-64
2021/06/10 01:28:47;;;;;;;21.45;15.25;;;18.10;99.90;;;;;;5035079;28;20033;-64
2021/06/10 01:31:16;;;;;;;24.20;15.05;;;18.10;99.90;;;;;;5034481;28;20497;-64
2021/06/10 01:33:56;;;;;;;20.83;14.20;;;18.20;99.90;;;;;;5034128;28;20026;-64
2021/06/10 01:36:27;;;;;;;23.30;14.85;;;18.20;99.90;;;;;;5034098;28;20030;-64
2021/06/10 01:38:58;;;;;;;30.73;19.67;;;18.10;99.90;;;;;;5034965;28;20357;-64
2021/06/10 01:41:26;;;;;;;24.73;13.68;;;18.10;99.90;;;;;;5033958;28;20087;-64
2021/06/10 01:43:53;;;;;;;16.85;13.40;;;18.10;99.90;;;;;;5033523;28;20063;-64
2021/06/10 01:46:24;;;;;;;22.05;15.15;;;18.00;99.90;;;;;;5033951;28;20393;-64
2021/06/10 01:48:50;;;;;;;;;;;17.90;99.90;;;;;;5033898;28;20053;-64
2021/06/10 01:51:24;;;;;;;18.35;14.27;;;17.90;99.90;;;;;;5033384;28;19987;-65
2021/06/10 01:53:52;;;;;;;20.52;13.02;;;18.00;99.90;;;;;;5034924;28;20060;-65
2021/06/10 01:56:22;;;;;;;21.40;13.35;;;18.10;99.90;;;;;;5034989;28;20036;-65
2021/06/10 01:58:50;;;;;;;18.83;13.15;;;18.20;99.90;;;;;;5033343;28;20036;-64
2021/06/10 02:01:17;;;;;;;17.60;12.52;;;18.10;99.90;;;;;;5034593;28;20061;-65
2021/06/10 02:03:45;;;;;;;17.05;12.57;;;18.20;99.90;;;;;;5033087;28;20029;-65
2021/06/10 02:06:12;;;;;;;17.95;12.65;;;18.30;99.90;;;;;;5034588;28;20036;-64
2021/06/10 02:08:40;;;;;;;17.15;13.05;;;18.20;99.90;;;;;;5034630;28;20044;-64
2021/06/10 02:11:06;;;;;;;22.05;14.10;;;18.20;99.90;;;;;;5033307;28;20025;-63
2021/06/10 02:13:34;;;;;;;18.77;12.57;;;18.20;99.90;;;;;;5032936;28;20108;-63
2021/06/10 02:16:07;;;;;;;19.38;13.18;;;18.20;99.90;;;;;;5034060;28;20565;-63
2021/06/10 02:18:35;;;;;;;21.92;14.25;;;18.10;99.90;;;;;;5032915;28;20561;-63
2021/06/10 02:21:03;;;;;;;27.60;14.75;;;18.00;99.90;;;;;;5033129;28;20108;-63
2021/06/10 02:23:29;;;;;;;20.08;14.38;;;17.80;99.90;;;;;;5034074;28;20379;-64
2021/06/10 02:25:56;;;;;;;18.45;13.98;;;17.80;99.90;;;;;;5034206;28;20034;-63
2021/06/10 02:28:22;;;;;;;23.40;14.50;;;17.80;99.90;;;;;;5034166;28;20033;-63
2021/06/10 02:30:48;;;;;;;18.90;14.23;;;17.80;99.90;;;;;;5032674;28;20107;-63
2021/06/10 02:33:17;;;;;;;23.80;14.85;;;17.70;99.90;;;;;;5033641;28;20033;-63
2021/06/10 02:35:43;;;;;;;20.88;14.13;;;17.60;99.90;;;;;;5032742;28;20029;-63
2021/06/10 02:38:11;;;;;;;18.90;13.20;;;17.70;99.90;;;;;;5032543;28;20037;-63
2021/06/10 02:40:46;;;;;;;20.15;13.57;;;17.80;99.90;;;;;;5032630;28;20402;-64
2021/06/10 02:43:13;;;;;;;22.05;13.77;;;17.90;99.90;;;;;;5033863;28;20095;-64
2021/06/10 02:45:43;;;;;;;22.42;13.10;;;17.90;99.90;;;;;;5032736;28;20466;-64
2021/06/10 02:48:10;;;;;;;16.88;12.15;;;17.90;99.90;;;;;;5032339;28;20128;-64
2021/06/10 02:50:40;;;;;;;21.15;13.70;;;18.00;99.90;;;;;;5032482;28;20079;-64
2021/06/10 02:53:08;;;;;;;19.45;13.48;;;18.00;99.90;;;;;;5032158;28;20167;-64
2021/06/10 02:55:38;;;;;;;20.20;13.43;;;18.00;99.90;;;;;;5032344;28;20029;-64
2021/06/10 02:58:05;;;;;;;22.10;13.95;;;18.00;99.90;;;;;;5032212;28;20037;-64
2021/06/10 03:00:33;;;;;;;21.75;13.30;;;17.90;99.90;;;;;;5032193;28;20068;-63
2021/06/10 03:03:01;;;;;;;18.48;13.55;;;17.70;99.90;;;;;;5033260;28;20037;-63
2021/06/10 03:05:30;;;;;;;20.73;13.93;;;17.60;99.90;;;;;;5032187;28;20025;-63
2021/06/10 03:07:56;;;;;;;19.27;13.35;;;17.60;99.90;;;;;;5032167;28;20037;-63
2021/06/10 03:10:28;;;;;;;22.05;14.98;;;17.50;99.90;;;;;;5032165;28;20493;-63
2021/06/10 03:12:55;;;;;;;19.92;14.25;;;17.70;99.90;;;;;;5032740;28;20042;-63
2021/06/10 03:15:22;;;;;;;22.23;15.02;;;17.60;99.90;;;;;;5031862;28;20021;-63
2021/06/10 03:17:49;;;;;;;26.30;14.73;;;17.50;99.90;;;;;;5032888;28;20033;-63
2021/06/10 03:20:15;;;;;;;24.30;15.25;;;17.50;99.90;;;;;;5032928;28;20394;-63
2021/06/10 03:22:41;;;;;;;22.17;15.50;;;17.50;99.90;;;;;;5031911;28;20497;-64
2021/06/10 03:25:09;;;;;;;19.40;15.20;;;17.50;99.90;;;;;;5031558;28;20030;-64
2021/06/10 03:27:36;;;;;;;22.60;15.75;;;17.40;99.90;;;;;;5033210;28;20033;-63
2021/06/10 03:30:07;;;;;;;24.88;14.60;;;17.40;99.90;;;;;;5032552;28;20042;-63
2021/06/10 03:32:34;;;;;;;21.63;15.38;;;17.40;99.90;;;;;;5031611;28;20508;-63
2021/06/10 03:35:02;;;;;;;24.75;15.65;;;17.30;99.90;;;;;;5032555;28;20040;-62
2021/06/10 03:37:29;;;;;;;26.75;15.25;;;17.20;99.90;;;;;;5033033;28;20116;-63
2021/06/10 03:39:56;;;;;;;23.50;15.45;;;17.30;99.90;;;;;;5031450;28;20509;-63
2021/06/10 03:42:23;;;;;;;20.95;15.90;;;17.30;99.90;;;;;;5031459;28;20071;-63
2021/06/10 03:44:49;;;;;;;29.02;15.90;;;17.40;99.90;;;;;;5031354;28;20108;-63
2021/06/10 03:47:17;;;;;;;21.92;14.70;;;17.40;99.90;;;;;;5032433;28;20053;-58
2021/06/10 03:49:44;;;;;;;23.83;16.80;;;17.40;99.90;;;;;;5062571;28;20036;-58
2021/06/10 03:52:10;;;;;;;24.70;16.50;;;17.50;99.90;;;;;;5052461;28;20036;-58
2021/06/10 03:54:36;;;;;;;27.95;17.13;;;17.40;99.90;;;;;;5046261;28;20045;-58
2021/06/10 03:57:02;;;;;;;22.58;15.25;;;17.40;99.90;;;;;;5032579;28;20076;-58
2021/06/10 03:59:28;;;;;;;29.20;16.00;;;17.60;99.90;;;;;;5032676;28;20025;-58
2021/06/10 04:01:54;;;;;;;21.05;14.45;;;17.70;99.90;;;;;;5032568;28;20080;-58
2021/06/10 04:04:19;;;;;;;21.60;14.20;;;17.80;99.90;;;;;;5031907;28;20033;-59
2021/06/10 04:06:47;;;;;;;24.15;14.95;;;17.80;99.90;;;;;;5032495;28;20034;-59
2021/06/10 04:09:12;;;;;;;22.73;14.13;;;17.80;99.90;;;;;;5032054;28;20433;-58
2021/06/10 04:11:39;;;;;;;21.40;14.07;;;17.80;99.90;;;;;;5032546;28;20025;-57
2021/06/10 04:14:06;;;;;;;23.10;14.35;;;17.70;99.90;;;;;;5031008;28;20113;-57
2021/06/10 04:16:32;;;;;;;20.58;14.77;;;17.80;99.90;;;;;;5032328;28;20045;-55
2021/06/10 04:18:59;;;;;;;23.75;15.00;;;17.70;99.90;;;;;;5030955;28;20029;-57
2021/06/10 04:21:25;;;;;;;23.80;15.75;;;17.60;99.90;;;;;;5031978;28;20033;-59
2021/06/10 04:23:51;;;;;;;23.67;15.65;;;17.60;99.90;;;;;;5032302;28;20044;-55
2021/06/10 04:26:19;;;;;;;23.05;14.88;;;17.50;99.90;;;;;;5033660;28;20541;-58
2021/06/10 04:28:46;;;;;;;27.10;16.05;;;17.40;99.90;;;;;;5036201;28;20034;-58
2021/06/10 04:31:14;;;;;;;19.58;14.95;;;17.20;99.90;;;;;;5036452;28;20030;-61
2021/06/10 04:33:40;;;;;;;25.77;16.58;;;17.30;99.90;;;;;;5036086;28;20359;-60
2021/06/10 04:36:06;;;;;;;24.77;16.55;;;17.20;99.90;;;;;;5035947;28;20061;-60
2021/06/10 04:38:32;;;;;;;24.25;16.85;;;17.30;99.90;;;;;;5036395;28;20118;-60
2021/06/10 04:40:59;;;;;;;24.58;16.08;;;17.30;99.90;;;;;;5036299;28;20052;-56
2021/06/10 04:43:24;;;;;;;22.13;15.88;;;17.40;99.90;;;;;;5036023;28;20088;-55
2021/06/10 04:45:50;;;;;;;25.70;17.25;;;17.40;99.90;;;;;;5036158;28;20409;-56
2021/06/10 04:48:16;;;;;;;25.63;16.83;;;17.20;99.90;;;;;;5035805;28;20029;-54
2021/06/10 04:50:42;;;;;;;23.23;16.60;;;17.20;99.90;;;;;;5035261;28;20076;-69
2021/06/10 04:53:08;;;;;;;22.45;16.38;;;17.30;99.90;;;;;;5017921;28;20026;-69
2021/06/10 04:55:34;;;;;;;26.73;16.90;;;17.30;99.90;;;;;;5017910;28;20091;-69
2021/06/10 04:58:01;;;;;;;29.80;19.48;;;17.30;99.90;;;;;;5035867;28;20037;-69
2021/06/10 05:00:27;;;;;;;27.92;17.63;;;17.40;99.90;;;;;;5034426;28;20493;-69
2021/06/10 05:02:53;;;;;;;24.67;17.15;;;17.40;99.90;;;;;;5034210;28;20041;-68
2021/06/10 05:05:19;;;;;;;28.90;18.08;;;17.50;99.90;;;;;;5035314;28;20037;-69
2021/06/10 05:07:45;;;;;;;27.33;19.27;;;17.70;99.90;;;;;;5034318;28;20470;-69
2021/06/10 05:10:11;;;;;;;37.55;22.30;;;17.60;99.90;;;;;;5033865;28;20083;-69
2021/06/10 05:12:37;;;;;;;24.75;17.75;;;17.70;99.90;;;;;;5035247;28;20041;-69
2021/06/10 05:15:05;;;;;;;25.23;16.92;;;17.70;99.90;;;;;;5035157;28;20030;-69
2021/06/10 05:17:31;;;;;;;29.63;19.08;;;17.70;99.90;;;;;;5034038;28;20037;-69
2021/06/10 05:19:57;;;;;;;27.38;17.60;;;17.80;99.90;;;;;;5035454;28;20029;-69
2021/06/10 05:22:22;;;;;;;24.88;16.55;;;17.80;99.90;;;;;;5034988;28;20037;-69
2021/06/10 05:24:48;;;;;;;24.15;15.63;;;17.80;99.90;;;;;;5035147;28;20025;-69
2021/06/10 05:27:14;;;;;;;21.50;16.15;;;17.90;99.90;;;;;;5035099;28;20037;-69
2021/06/10 05:29:41;;;;;;;22.20;15.68;;;17.90;99.90;;;;;;5034616;28;20131;-69
2021/06/10 05:32:07;;;;;;;26.90;17.75;;;17.90;99.90;;;;;;5033472;28;20501;-69
2021/06/10 05:34:34;;;;;;;23.77;16.92;;;18.00;99.90;;;;;;5050043;28;20034;-54
2021/06/10 05:36:59;;;;;;;23.75;15.77;;;18.00;99.90;;;;;;5034516;28;20033;-50
2021/06/10 05:39:25;;;;;;;26.35;17.67;;;18.00;99.90;;;;;;5034930;28;20106;-59
2021/06/10 05:41:53;;;;;;;25.13;16.45;;;18.00;99.90;;;;;;5034721;28;20044;-57
2021/06/10 05:44:19;;;;;;;21.73;16.33;;;18.10;99.90;;;;;;5034548;28;20064;-59
2021/06/10 05:46:45;;;;;;;23.88;16.40;;;18.20;99.90;;;;;;5034799;28;20053;-58
2021/06/10 05:49:11;;;;;;;27.52;19.48;;;18.30;99.90;;;;;;5042074;28;20059;-58
2021/06/10 05:51:36;;;;;;;28.08;16.40;;;18.40;99.90;;;;;;5054299;28;20025;-58
2021/06/10 05:54:02;;;;;;;25.13;16.48;;;18.40;99.90;;;;;;5054575;28;20029;-57
2021/06/10 05:56:28;;;;;;;22.95;15.82;;;18.50;99.90;;;;;;5054486;28;20056;-58
2021/06/10 05:58:54;;;;;;;36.55;23.17;;;18.60;99.90;;;;;;5054583;28;20048;-57
2021/06/10 06:01:20;;;;;;;23.83;16.63;;;18.80;99.90;;;;;;5054428;28;20033;-57
2021/06/10 06:03:45;;;;;;;23.63;16.35;;;18.80;99.90;;;;;;5054476;28;20120;-57
2021/06/10 06:06:11;;;;;;;25.27;16.52;;;18.90;99.90;;;;;;5050348;28;20021;-57
2021/06/10 06:08:37;;;;;;;21.38;16.05;;;18.90;99.90;;;;;;5033598;28;20033;-57
2021/06/10 06:11:04;;;;;;;25.50;17.60;;;19.20;99.90;;;;;;5033791;28;20059;-58
2021/06/10 06:16:13;;;;;;;21.45;15.02;;;19.60;99.90;;;;;;5034125;28;20030;-56
2021/06/10 06:18:40;;;;;;;22.20;15.68;;;19.70;99.90;;;;;;5040871;28;20045;-66
2021/06/10 06:21:07;;;;;;;21.88;14.90;;;19.70;99.90;;;;;;5052729;28;20493;-65
2021/06/10 06:23:33;;;;;;;26.60;17.35;;;19.70;99.90;;;;;;5036325;28;20037;-65
2021/06/10 06:26:00;;;;;;;24.52;17.17;;;19.80;99.90;;;;;;5053696;28;20032;-65
2021/06/10 06:28:27;;;;;;;23.42;16.85;;;20.00;99.90;;;;;;5050533;28;20036;-65
2021/06/10 06:30:53;;;;;;;29.70;19.95;;;20.00;99.90;;;;;;5030543;28;20119;-65
2021/06/10 06:33:19;;;;;;;26.58;18.50;;;20.00;99.90;;;;;;5032610;28;20437;-65
2021/06/10 06:35:45;;;;;;;30.33;18.98;;;20.20;99.90;;;;;;5033560;28;20030;-64
2021/06/10 06:38:12;;;;;;;26.73;18.98;;;20.30;99.90;;;;;;5033595;28;20501;-64
2021/06/10 06:40:39;;;;;;;31.70;18.67;;;20.40;99.90;;;;;;5031710;28;20021;-65
2021/06/10 06:43:06;;;;;;;25.10;18.73;;;20.40;99.90;;;;;;5032579;28;20482;-64
2021/06/10 06:45:36;;;;;;;27.33;19.65;;;20.40;99.90;;;;;;5033376;28;20030;-65
2021/06/10 06:48:02;;;;;;;27.40;19.67;;;20.40;99.90;;;;;;5034419;28;20034;-65
2021/06/10 06:50:28;;;;;;;31.58;21.52;;;20.50;99.90;;;;;;5053242;28;20051;-64
2021/06/10 06:52:53;;;;;;;29.45;20.70;;;20.30;99.90;;;;;;5053536;28;20594;-65
2021/06/10 06:55:19;;;;;;;29.55;20.38;;;20.30;99.90;;;;;;5053472;28;20047;-65
2021/06/10 06:57:45;;;;;;;27.52;20.55;;;20.30;99.90;;;;;;5053240;28;20112;-65
2021/06/10 07:00:11;;;;;;;28.65;20.42;;;20.50;99.90;;;;;;5053202;28;20435;-65
2021/06/10 07:02:37;;;;;;;28.65;20.90;;;20.60;99.90;;;;;;5053343;28;20455;-65
2021/06/10 07:05:04;;;;;;;29.60;20.55;;;20.70;99.90;;;;;;5045727;28;20113;-65
2021/06/10 07:07:30;;;;;;;28.13;19.45;;;20.70;99.90;;;;;;5031819;28;20489;-64
2021/06/10 07:09:57;;;;;;;29.55;20.23;;;20.60;99.90;;;;;;5033314;28;20052;-65
2021/06/10 07:12:23;;;;;;;29.17;19.60;;;20.80;99.90;;;;;;5032853;28;20033;-65
2021/06/10 07:14:49;;;;;;;27.58;19.88;;;20.80;99.90;;;;;;5033297;28;20022;-65
2021/06/10 07:17:14;;;;;;;27.58;19.05;;;21.00;99.90;;;;;;5031366;28;20498;-65
2021/06/10 07:19:40;;;;;;;24.40;18.27;;;21.10;99.90;;;;;;5047867;28;20021;-65
2021/06/10 07:22:09;;;;;;;26.23;18.10;;;21.30;99.90;;;;;;5050888;28;20028;-65
2021/06/10 07:24:35;;;;;;;32.05;18.20;;;21.30;99.90;;;;;;5051376;28;20522;-65
2021/06/10 07:27:01;;;;;;;22.00;15.95;;;21.50;99.90;;;;;;5044387;28;20032;-65
2021/06/10 07:29:26;;;;;;;24.77;15.73;;;21.70;99.90;;;;;;5032562;28;20042;-65
2021/06/10 07:31:52;;;;;;;20.52;14.57;;;21.80;99.90;;;;;;5031840;28;20461;-65
2021/06/10 07:34:18;;;;;;;25.88;17.02;;;21.80;99.90;;;;;;5032383;28;20108;-65
2021/06/10 07:36:44;;;;;;;21.65;15.50;;;21.60;99.90;;;;;;5032903;28;20040;-65
2021/06/10 07:39:10;;;;;;;18.58;14.63;;;21.50;99.90;;;;;;5032974;28;20033;-65
2021/06/10 07:41:37;;;;;;;23.40;14.93;;;21.80;99.90;;;;;;5037063;28;20381;-65
2021/06/10 07:44:04;;;;;;;19.35;14.40;;;21.90;99.90;;;;;;5052481;28;20029;-65
2021/06/10 07:46:30;;;;;;;22.08;15.18;;;21.90;99.90;;;;;;5052498;28;20052;-65
2021/06/10 07:48:56;;;;;;;19.52;13.75;;;21.90;99.90;;;;;;5043402;28;20509;-65
2021/06/10 07:51:22;;;;;;;23.73;14.88;;;22.10;99.90;;;;;;5032492;28;20030;-65
2021/06/10 07:53:47;;;;;;;22.20;14.65;;;22.00;99.90;;;;;;5032636;28;20099;-65
2021/06/10 07:56:13;;;;;;;22.23;14.52;;;22.10;99.90;;;;;;5047554;28;20068;-65
2021/06/10 07:58:39;;;;;;;21.25;13.82;;;22.20;99.90;;;;;;5032438;28;20041;-65
2021/06/10 08:01:06;;;;;;;19.65;13.32;;;22.30;99.90;;;;;;5032086;28;20466;-66
2021/06/10 08:03:32;;;;;;;17.42;12.43;;;22.40;99.90;;;;;;5032152;28;20029;-66
2021/06/10 08:05:59;;;;;;;20.25;13.48;;;22.30;99.90;;;;;;5047761;28;20515;-66
2021/06/10 08:08:24;;;;;;;29.45;13.10;;;22.50;99.90;;;;;;5047494;28;20034;-66
2021/06/10 08:10:52;;;;;;;32.78;12.52;;;22.60;99.90;;;;;;5032488;28;20032;-65
2021/06/10 08:13:21;;;;;;;18.27;12.15;;;22.80;99.90;;;;;;5032062;28;20029;-65
2021/06/10 08:15:48;;;;;;;17.98;12.40;;;22.80;99.90;;;;;;5032110;28;20111;-66
2021/06/10 08:18:13;;;;;;;16.02;11.88;;;22.80;99.90;;;;;;5035050;28;20044;-65
2021/06/10 08:20:40;;;;;;;21.55;11.73;;;23.00;99.90;;;;;;5052029;28;20029;-66
2021/06/10 08:23:06;;;;;;;16.77;11.68;;;23.00;99.90;;;;;;5051919;28;20037;-66
2021/06/10 08:25:34;;;;;;;20.73;14.77;;;23.10;99.90;;;;;;5052072;28;20182;-66
2021/06/10 08:28:04;;;;;;;19.58;12.63;;;23.30;99.90;;;;;;5052041;28;20176;-66
2021/06/10 08:30:31;;;;;;;15.60;11.30;;;23.30;99.90;;;;;;5050409;28;20041;-65
2021/06/10 08:32:58;;;;;;;13.13;10.23;;;23.40;99.90;;;;;;5051904;28;20029;-65
2021/06/10 08:35:24;;;;;;;17.73;11.65;;;23.40;99.90;;;;;;5050379;28;20040;-65
2021/06/10 08:37:50;;;;;;;13.27;11.07;;;23.50;99.90;;;;;;5051990;28;20033;-65
2021/06/10 08:40:16;;;;;;;13.57;10.90;;;23.60;99.90;;;;;;5051517;28;20028;-65
2021/06/10 08:42:45;;;;;;;13.40;11.00;;;23.70;99.90;;;;;;5051715;28;20086;-66
2021/06/10 08:45:17;;;;;;;16.80;11.13;;;23.90;99.90;;;;;;5050263;28;20075;-66
2021/06/10 08:47:46;;;;;;;12.55;10.55;;;24.00;99.90;;;;;;5051808;28;20060;-66
2021/06/10 08:50:18;;;;;;;15.35;11.15;;;23.80;99.90;;;;;;5032166;28;20041;-65
2021/06/10 08:52:44;;;;;;;19.45;9.63;;;23.90;99.90;;;;;;5031936;28;20057;-66
2021/06/10 08:55:12;;;;;;;13.70;10.43;;;24.10;99.90;;;;;;5030794;28;20030;-66
2021/06/10 08:57:38;;;;;;;13.82;11.07;;;24.40;99.90;;;;;;5030229;28;20430;-66
2021/06/10 09:00:08;;;;;;;17.13;10.98;;;24.10;99.90;;;;;;5030579;28;20467;-66
2021/06/10 09:02:36;;;;;;;14.52;9.93;;;24.10;99.90;;;;;;5030663;28;20026;-66
2021/06/10 09:05:04;;;;;;;13.45;10.63;;;24.40;99.90;;;;;;5031442;28;20030;-64
2021/06/10 09:07:39;;;;;;;14.32;11.20;;;24.60;99.90;;;;;;5031670;28;20030;-65
2021/06/10 09:10:08;;;;;;;15.23;11.60;;;24.50;99.90;;;;;;5030542;28;20080;-65
2021/06/10 09:13:02;;;;;;;15.45;10.82;;;24.60;99.90;;;;;;5033344;28;20081;-66
2021/06/10 09:15:35;;;;;;;14.90;10.52;;;24.80;99.90;;;;;;5033144;28;20065;-66
2021/06/10 09:18:02;;;;;;;13.77;10.52;;;24.90;99.90;;;;;;5035281;28;20064;-66
2021/06/10 09:20:41;;;;;;;12.88;10.93;;;25.10;99.90;;;;;;5055262;28;20542;-65
2021/06/10 09:23:09;;;;;;;12.40;9.90;;;25.10;99.90;;;;;;5053935;28;20041;-66
2021/06/10 09:25:35;;;;;;;12.27;10.23;;;24.90;99.90;;;;;;5055041;28;20115;-66
2021/06/10 09:28:04;;;;;;;12.18;9.18;;;25.20;99.90;;;;;;5054867;28;20033;-66
2021/06/10 09:30:40;;;;;;;11.88;8.88;;;25.30;99.90;;;;;;5054655;28;20393;-66
2021/06/10 09:33:13;;;;;;;12.32;9.38;;;25.60;99.90;;;;;;5053715;28;20069;-66
2021/06/10 09:35:43;;;;;;;14.63;10.65;;;25.50;99.90;;;;;;5054782;28;20033;-65
2021/06/10 09:38:16;;;;;;;11.45;9.50;;;25.60;99.90;;;;;;5054845;28;20025;-64
2021/06/10 09:40:42;;;;;;;13.73;10.48;;;25.60;99.90;;;;;;5053348;28;20485;-67
2021/06/10 09:43:09;;;;;;;11.90;10.30;;;25.50;99.90;;;;;;5054900;28;20040;-65
2021/06/10 09:45:36;;;;;;;13.43;10.45;;;25.40;99.90;;;;;;5053492;28;20117;-65
2021/06/10 09:48:05;;;;;;;13.70;10.75;;;25.30;99.90;;;;;;5052924;28;20481;-66
2021/06/10 09:50:45;;;;;;;15.65;11.10;;;25.40;99.90;;;;;;5033905;28;20098;-66
2021/06/10 09:53:17;;;;;;;17.37;11.07;;;25.60;99.90;;;;;;5052502;28;20033;-65
2021/06/10 09:55:58;;;;;;;13.60;9.35;;;25.50;99.90;;;;;;5054568;28;20077;-65
2021/06/10 09:58:34;;;;;;;13.20;9.88;;;25.70;99.90;;;;;;5054180;28;20037;-66
2021/06/10 10:01:04;;;;;;;14.23;9.60;;;25.50;99.90;;;;;;5054298;28;20029;-69
2021/06/10 10:03:40;;;;;;;10.67;8.83;;;25.60;99.90;;;;;;5052980;28;20090;-67
2021/06/10 10:06:17;;;;;;;17.02;10.73;;;25.70;99.90;;;;;;5053111;28;20041;-67
2021/06/10 10:08:47;;;;;;;14.10;9.90;;;25.60;99.90;;;;;;5037326;28;20520;-67
2021/06/10 10:11:14;;;;;;;14.60;10.20;;;25.70;99.90;;;;;;5053129;28;20029;-67
2021/06/10 10:13:43;;;;;;;14.02;9.20;;;25.80;99.90;;;;;;5054028;28;20039;-67
2021/06/10 10:16:11;;;;;;;13.73;10.23;;;25.90;99.90;;;;;;5034012;28;20059;-67
2021/06/10 10:18:38;;;;;;;14.02;9.93;;;26.10;99.90;;;;;;5038529;28;20081;-67
2021/06/10 10:21:07;;;;;;;13.57;9.88;;;26.20;99.90;;;;;;5052622;28;20488;-68
2021/06/10 10:23:34;;;;;;;12.55;8.18;;;26.40;99.90;;;;;;5054079;28;20029;-67
2021/06/10 10:26:06;;;;;;;9.85;8.02;;;26.70;99.90;;;;;;5036006;28;20033;-67
2021/06/10 10:28:36;;;;;;;13.95;7.70;;;26.80;99.90;;;;;;5032854;28;20513;-67
2021/06/10 10:31:06;;;;;;;12.88;8.13;;;26.80;99.50;;;;;;5032518;28;20057;-67
2021/06/10 10:33:32;;;;;;;12.25;8.55;;;27.00;99.80;;;;;;5032423;28;20037;-67
2021/06/10 10:36:02;;;;;;;10.95;8.77;;;26.80;99.90;;;;;;5033748;28;20026;-68
2021/06/10 10:38:39;;;;;;;11.48;8.07;;;27.00;99.70;;;;;;5033937;28;20029;-67
2021/06/10 10:41:11;;;;;;;14.10;8.07;;;27.20;99.80;;;;;;5033958;28;20061;-68
2021/06/10 10:43:38;;;;;;;8.32;7.40;;;27.60;99.30;;;;;;5033444;28;20103;-68
2021/06/10 10:46:20;;;;;;;8.57;7.03;;;27.60;97.90;;;;;;5033664;28;20505;-68
2021/06/10 10:48:51;;;;;;;10.30;7.88;;;27.70;98.00;;;;;;5039721;28;20086;-68
2021/06/10 10:51:24;;;;;;;;;;;27.60;98.20;;;;;;5053023;28;20037;-68
2021/06/10 10:53:58;;;;;;;10.35;7.68;;;27.60;98.80;;;;;;5053121;28;19913;-68
2021/06/10 10:56:42;;;;;;;8.57;7.35;;;27.90;96.60;;;;;;5053318;28;20029;-67
2021/06/10 10:59:16;;;;;;;9.13;7.32;;;28.10;96.60;;;;;;5052297;28;20087;-68
2021/06/10 11:02:04;;;;;;;13.30;7.28;;;27.80;97.20;;;;;;5053108;28;20112;-68
2021/06/10 11:04:59;;;;;;;8.43;7.20;;;27.70;96.50;;;;;;5053228;28;20068;-67
2021/06/10 11:07:40;;;;;;;21.30;15.18;;;28.10;96.00;;;;;;5037562;28;20129;-68
2021/06/10 11:10:33;;;;;;;9.23;6.60;;;28.50;95.30;;;;;;5033031;28;20065;-68
2021/06/10 11:13:00;;;;;;;8.20;6.57;;;28.20;93.70;;;;;;5032746;28;20041;-68
2021/06/10 11:15:26;;;;;;;8.23;6.78;;;27.80;94.70;;;;;;5033056;28;20572;-68
2021/06/10 11:17:56;;;;;;;8.70;6.75;;;28.50;94.20;;;;;;5033106;28;20120;-68
2021/06/10 11:20:42;;;;;;;8.75;6.50;;;28.60;93.60;;;;;;5051931;28;20029;-67
2021/06/10 11:23:12;;;;;;;9.60;6.40;;;28.90;93.30;;;;;;5053038;28;20032;-67
2021/06/10 11:25:45;;;;;;;8.30;6.47;;;29.10;92.60;;;;;;5045977;28;20103;-68
2021/06/10 11:28:15;;;;;;;10.60;6.30;;;28.80;92.90;;;;;;5031567;28;20030;-67
2021/06/10 11:30:42;;;;;;;9.38;6.20;;;29.20;92.00;;;;;;5032378;28;20045;-67
2021/06/10 11:33:17;;;;;;;11.73;7.05;;;29.60;92.00;;;;;;5032569;28;20069;-67
2021/06/10 11:36:00;;;;;;;8.07;6.78;;;29.80;89.60;;;;;;5031915;28;20041;-67
2021/06/10 11:38:44;;;;;;;12.55;7.68;;;29.60;89.10;;;;;;5031424;28;20433;-67
2021/06/10 11:41:20;;;;;;;7.88;6.75;;;29.80;90.20;;;;;;5032670;28;20402;-67
2021/06/10 11:43:58;;;;;;;8.40;6.35;;;29.40;90.00;;;;;;5031109;28;20430;-67
2021/06/10 11:46:38;;;;;;;11.43;7.43;;;29.20;88.40;;;;;;5031442;28;20026;-68
2021/06/10 11:49:07;;;;;;;8.25;6.80;;;28.90;85.30;;;;;;5040598;28;20354;-67
2021/06/10 11:51:37;;;;;;;10.25;7.18;;;28.90;84.70;;;;;;5051009;28;20024;-68
2021/06/10 11:54:11;;;;;;;12.97;7.13;;;29.10;84.40;;;;;;5051746;28;20037;-67
2021/06/10 11:56:38;;;;;;;8.60;6.65;;;29.20;85.30;;;;;;5050777;28;20330;-67
2021/06/10 11:59:37;;;;;;;8.63;6.60;;;29.40;85.60;;;;;;5062825;28;20109;-66
2021/06/10 12:02:07;;;;;;;6.90;6.00;;;29.30;84.10;;;;;;5004087;28;20049;-68
2021/06/10 12:04:36;;;;;;;9.65;5.70;;;29.60;84.40;;;;;;5030636;28;20478;-68
2021/06/10 12:07:15;;;;;;;9.15;7.07;;;29.50;84.20;;;;;;5030968;28;20083;-67
2021/06/10 12:09:58;;;;;;;9.13;6.23;;;29.80;81.20;;;;;;5031823;28;20045;-68
2021/06/10 12:12:35;;;;;;;7.38;5.88;;;29.70;81.10;;;;;;5030665;28;20033;-68
2021/06/10 12:15:01;;;;;;;8.73;6.28;;;29.60;81.10;;;;;;5030402;28;20390;-68
2021/06/10 12:17:27;;;;;;;7.10;5.47;;;29.70;80.00;;;;;;5030541;28;20033;-68
2021/06/10 12:20:19;;;;;;;8.80;5.65;;;29.70;80.50;;;;;;5033445;28;20056;-68
2021/06/10 12:22:46;;;;;;;6.78;5.43;;;29.80;81.40;;;;;;5018866;28;20029;-67
2021/06/10 12:25:27;;;;;;;8.43;6.50;;;30.20;79.00;;;;;;5031845;28;20052;-67
2021/06/10 12:27:59;;;;;;;7.47;6.22;;;30.20;79.10;;;;;;5030835;28;20083;-66
2021/06/10 12:30:30;;;;;;;8.68;6.05;;;30.00;78.60;;;;;;5030595;28;20049;-67
2021/06/10 12:33:21;;;;;;;7.70;5.93;;;30.20;77.20;;;;;;5031330;28;20033;-68
2021/06/10 12:35:52;;;;;;;8.30;6.25;;;30.40;77.10;;;;;;5031631;28;20425;-67
2021/06/10 12:38:31;;;;;;;6.55;5.15;;;30.60;75.00;;;;;;5030310;28;20045;-68
2021/06/10 12:41:32;;;;;;;8.10;5.22;;;30.70;72.70;;;;;;5031948;28;20051;-68
2021/06/10 12:44:30;;;;;;;10.73;5.63;;;30.60;74.00;;;;;;5032016;28;20040;-68